createdAt,value
2018-10-17T00:01:33.952Z,14.43
2018-10-17T00:04:02.823Z,15.75
2018-10-17T00:06:31.636Z,14.57
2018-10-17T00:09:00.484Z,15.43
2018-10-17T00:11:29.308Z,17.63
2018-10-17T00:13:58.159Z,16.33
2018-10-17T00:16:26.992Z,15.93
2018-10-17T00:18:56.609Z,16.03
2018-10-17T00:21:25.402Z,16.85
2018-10-17T00:23:54.239Z,14.83
2018-10-17T00:26:23.086Z,15.33
2018-10-17T00:28:52.664Z,15.30
2018-10-17T00:31:21.505Z,15.70
2018-10-17T00:33:50.335Z,17.45
2018-10-17T00:36:19.184Z,15.37
2018-10-17T00:38:48.016Z,15.97
2018-10-17T00:41:16.939Z,15.20
2018-10-17T00:43:45.713Z,17.50
2018-10-17T00:46:15.307Z,15.07
2018-10-17T00:48:44.155Z,14.90
2018-10-17T00:51:13.000Z,15.80
2018-10-17T00:53:41.851Z,14.77
2018-10-17T00:56:10.688Z,14.83
2018-10-17T00:58:39.541Z,14.17
2018-10-17T01:01:08.372Z,15.67
2018-10-17T01:03:37.938Z,16.60
2018-10-17T01:06:06.781Z,14.80
2018-10-17T01:08:35.617Z,15.90
2018-10-17T01:11:04.507Z,16.30
2018-10-17T01:13:33.304Z,15.87
2018-10-17T01:16:02.145Z,16.00
2018-10-17T01:18:30.972Z,17.57
2018-10-17T01:20:59.813Z,17.57
2018-10-17T01:23:28.648Z,19.98
2018-10-17T01:25:58.238Z,17.57
2018-10-17T01:28:27.078Z,17.53
2018-10-17T01:30:56.657Z,16.07
2018-10-17T01:33:25.483Z,15.40
2018-10-17T01:35:55.071Z,15.70
2018-10-17T01:38:24.653Z,14.73
2018-10-17T01:40:53.525Z,16.50
2018-10-17T01:43:22.343Z,14.77
2018-10-17T01:45:51.162Z,14.67
2018-10-17T01:48:20.000Z,14.70
2018-10-17T01:50:48.876Z,15.43
2018-10-17T01:53:17.715Z,14.20
2018-10-17T01:55:47.291Z,14.90
2018-10-17T01:58:16.135Z,15.90
2018-10-17T02:00:44.987Z,15.40
2018-10-17T02:03:13.817Z,15.40
2018-10-17T02:05:42.664Z,14.07
2018-10-17T02:08:12.252Z,13.90
2018-10-17T02:10:41.099Z,15.27
2018-10-17T02:13:09.933Z,13.93
2018-10-17T02:15:38.755Z,13.97
2018-10-17T02:18:07.602Z,13.90
2018-10-17T02:20:36.425Z,14.70
2018-10-17T02:23:06.041Z,15.30
2018-10-17T02:25:34.853Z,13.80
2018-10-17T02:28:03.695Z,14.17
2018-10-17T02:30:32.545Z,13.53
2018-10-17T02:33:01.380Z,13.90
2018-10-17T02:35:30.962Z,13.63
2018-10-17T02:37:59.811Z,15.90
2018-10-17T02:40:28.633Z,13.53
2018-10-17T02:42:57.515Z,16.07
2018-10-17T02:45:27.045Z,15.63
2018-10-17T02:47:55.889Z,15.73
2018-10-17T02:50:24.731Z,16.63
2018-10-17T02:52:54.346Z,17.23
2018-10-17T02:55:23.147Z,16.97
2018-10-17T02:57:51.982Z,16.73
2018-10-17T03:00:20.838Z,15.50
2018-10-17T03:02:49.663Z,16.17
2018-10-17T03:05:18.568Z,16.60
2018-10-17T03:07:47.339Z,17.53
2018-10-17T03:10:16.165Z,18.85
2018-10-17T03:12:45.016Z,16.53
2018-10-17T03:15:13.854Z,17.58
2018-10-17T03:17:43.427Z,16.23
2018-10-17T03:20:12.264Z,15.73
2018-10-17T03:22:41.104Z,15.80
2018-10-17T03:25:09.995Z,14.70
2018-10-17T03:27:38.790Z,16.60
2018-10-17T03:30:07.633Z,15.60
2018-10-17T03:32:36.481Z,15.40
2018-10-17T03:35:06.153Z,15.83
2018-10-17T03:37:34.905Z,17.03
2018-10-17T03:40:03.747Z,17.37
2018-10-17T03:42:32.582Z,16.53
2018-10-17T03:45:01.424Z,16.30
2018-10-17T03:47:30.265Z,15.77
2018-10-17T03:49:59.160Z,16.93
2018-10-17T03:52:27.961Z,16.83
2018-10-17T03:54:56.849Z,16.07
2018-10-17T03:57:25.675Z,17.07
2018-10-17T03:59:54.476Z,18.42
2018-10-17T04:02:24.073Z,17.47
2018-10-17T04:04:52.906Z,18.23
2018-10-17T04:07:21.753Z,18.65
2018-10-17T04:09:51.316Z,17.03
2018-10-17T04:12:20.157Z,17.98
2018-10-17T04:14:50.408Z,16.57
2018-10-17T04:17:19.145Z,17.40
2018-10-17T04:19:48.111Z,15.93
2018-10-17T04:22:16.811Z,15.73
2018-10-17T04:24:45.648Z,16.30
2018-10-17T04:27:14.499Z,15.43
2018-10-17T04:29:43.337Z,17.43
2018-10-17T04:32:12.176Z,16.93
2018-10-17T04:34:41.010Z,16.50
2018-10-17T04:37:09.900Z,15.47
2018-10-17T04:39:38.705Z,15.60
2018-10-17T04:42:07.534Z,15.30
2018-10-17T04:44:36.377Z,15.10
2018-10-17T04:47:05.330Z,14.63
2018-10-17T04:49:34.141Z,15.83
2018-10-17T04:52:02.986Z,16.97
2018-10-17T04:54:31.825Z,15.90
2018-10-17T04:57:00.661Z,17.13
2018-10-17T04:59:29.497Z,16.17
2018-10-17T05:01:58.333Z,18.50
2018-10-17T05:04:27.186Z,17.53
2018-10-17T05:06:56.844Z,17.93
2018-10-17T05:09:26.337Z,17.23
2018-10-17T05:11:55.182Z,17.57
2018-10-17T05:14:24.029Z,18.53
2018-10-17T05:16:52.874Z,17.07
2018-10-17T05:19:21.713Z,18.03
2018-10-17T05:21:50.557Z,18.17
2018-10-17T05:24:19.384Z,18.57
2018-10-17T05:26:48.227Z,19.03
2018-10-17T05:29:17.121Z,18.60
2018-10-17T05:31:45.901Z,18.23
2018-10-17T05:34:14.745Z,18.43
2018-10-17T05:36:43.602Z,19.03
2018-10-17T05:39:12.446Z,19.77
2018-10-17T05:41:41.306Z,18.47
2018-10-17T05:44:10.137Z,17.87
2018-10-17T05:46:38.985Z,18.33
2018-10-17T05:49:07.840Z,17.60
2018-10-17T05:51:36.662Z,18.40
2018-10-17T05:54:05.496Z,18.33
2018-10-17T05:56:34.341Z,19.73
2018-10-17T05:59:03.272Z,18.67
2018-10-17T06:01:32.025Z,17.57
2018-10-17T06:04:00.852Z,17.60
2018-10-17T06:06:29.686Z,19.85
2018-10-17T06:08:58.520Z,17.77
2018-10-17T06:11:28.097Z,19.07
2018-10-17T06:13:56.940Z,18.30
2018-10-17T06:16:25.781Z,18.27
2018-10-17T06:18:55.412Z,17.60
2018-10-17T06:21:24.183Z,18.53
2018-10-17T06:23:53.021Z,18.67
2018-10-17T06:26:21.845Z,18.57
2018-10-17T06:28:50.702Z,18.10
2018-10-17T06:31:19.582Z,19.10
2018-10-17T06:33:48.426Z,20.63
2018-10-17T06:36:17.232Z,20.55
2018-10-17T06:38:46.814Z,19.43
2018-10-17T06:41:15.730Z,19.13
2018-10-17T06:43:44.599Z,18.63
2018-10-17T06:46:14.090Z,18.83
2018-10-17T06:48:42.925Z,20.00
2018-10-17T06:51:11.839Z,17.20
2018-10-17T06:53:40.619Z,18.30
2018-10-17T06:56:09.452Z,20.70
2018-10-17T06:58:38.307Z,22.20
2018-10-17T07:01:07.183Z,24.20
2018-10-17T07:03:36.001Z,24.83
2018-10-17T07:06:04.845Z,28.97
2018-10-17T07:08:33.769Z,23.23
2018-10-17T07:11:02.591Z,30.53
2018-10-17T07:13:31.801Z,24.87
2018-10-17T07:16:01.447Z,24.10
2018-10-17T07:18:30.229Z,24.07
2018-10-17T07:20:59.079Z,25.93
2018-10-17T07:23:27.892Z,24.20
2018-10-17T07:25:56.747Z,22.77
2018-10-17T07:28:25.604Z,22.07
2018-10-17T07:30:54.475Z,25.60
2018-10-17T07:33:23.323Z,22.13
2018-10-17T07:35:52.268Z,23.83
2018-10-17T07:38:21.037Z,23.65
2018-10-17T07:40:49.885Z,20.70
2018-10-17T07:43:18.752Z,21.80
2018-10-17T07:45:47.673Z,21.10
2018-10-17T07:48:16.500Z,19.43
2018-10-17T07:50:45.316Z,20.20
2018-10-17T07:53:14.149Z,19.97
2018-10-17T07:55:42.978Z,19.80
2018-10-17T07:58:11.822Z,20.70
2018-10-17T08:00:41.397Z,23.70
2018-10-17T08:03:10.279Z,24.75
2018-10-17T08:05:39.073Z,22.03
2018-10-17T08:08:07.911Z,21.83
2018-10-17T08:10:36.784Z,22.07
2018-10-17T08:13:05.626Z,23.93
2018-10-17T08:15:34.454Z,26.73
2018-10-17T08:18:03.304Z,24.87
2018-10-17T08:20:32.136Z,24.77
2018-10-17T08:23:00.982Z,25.87
2018-10-17T08:25:29.833Z,28.30
2018-10-17T08:27:59.431Z,25.30
2018-10-17T08:30:29.018Z,25.97
2018-10-17T08:32:57.856Z,26.53
2018-10-17T08:35:26.801Z,26.73
2018-10-17T08:37:55.713Z,29.97
2018-10-17T08:40:24.385Z,29.77
2018-10-17T08:42:53.806Z,27.63
2018-10-17T08:45:22.710Z,28.90
2018-10-17T08:47:51.553Z,30.27
2018-10-17T08:50:20.384Z,29.97
2018-10-17T08:52:49.217Z,33.33
2018-10-17T08:55:18.119Z,31.23
2018-10-17T08:57:46.962Z,31.10
2018-10-17T09:00:15.755Z,29.67
2018-10-17T09:02:44.614Z,28.30
2018-10-17T09:05:14.207Z,29.60
2018-10-17T09:07:43.098Z,28.00
2018-10-17T09:10:11.909Z,32.35
2018-10-17T09:12:40.751Z,31.90
2018-10-17T09:17:40.451Z,29.97
2018-10-17T09:20:09.505Z,32.85
2018-10-17T09:22:38.208Z,30.77
2018-10-17T09:25:07.034Z,30.40
2018-10-17T09:27:35.814Z,30.67
2018-10-17T09:30:04.747Z,27.87
2018-10-17T09:32:34.243Z,29.10
2018-10-17T09:35:03.182Z,28.07
2018-10-17T09:37:31.943Z,32.45
2018-10-17T09:40:00.796Z,28.73
2018-10-17T09:42:29.636Z,28.07
2018-10-17T09:44:58.490Z,27.83
2018-10-17T09:47:27.318Z,27.57
2018-10-17T09:49:56.157Z,24.87
2018-10-17T09:52:25.000Z,28.50
2018-10-17T09:54:53.837Z,26.40
2018-10-17T09:57:22.674Z,27.97
2018-10-17T09:59:51.536Z,25.57
2018-10-17T10:02:20.409Z,26.50
2018-10-17T10:04:49.208Z,29.17
2018-10-17T10:07:18.800Z,29.33
2018-10-17T10:09:47.659Z,29.25
2018-10-17T10:12:16.556Z,25.83
2018-10-17T10:14:45.335Z,26.77
2018-10-17T10:17:14.253Z,24.80
2018-10-17T10:19:43.016Z,24.10
2018-10-17T10:22:11.931Z,24.47
2018-10-17T10:24:41.517Z,26.23
2018-10-17T10:27:10.287Z,27.07
2018-10-17T10:29:39.188Z,24.87
2018-10-17T10:32:07.972Z,23.93
2018-10-17T10:34:36.820Z,24.90
2018-10-17T10:37:05.678Z,23.03
2018-10-17T10:39:34.515Z,25.60
2018-10-17T10:42:03.394Z,22.97
2018-10-17T10:44:32.185Z,25.80
2018-10-17T10:47:01.027Z,24.87
2018-10-17T10:49:29.870Z,23.93
2018-10-17T10:51:58.706Z,26.53
2018-10-17T10:54:27.541Z,27.27
2018-10-17T10:56:57.159Z,22.60
2018-10-17T10:59:26.120Z,21.73
2018-10-17T11:01:54.843Z,22.60
2018-10-17T11:04:24.401Z,21.57
2018-10-17T11:06:53.247Z,23.75
2018-10-17T11:09:22.077Z,20.80
2018-10-17T11:11:50.913Z,24.37
2018-10-17T11:14:19.993Z,21.43
2018-10-17T11:16:48.609Z,22.35
2018-10-17T11:19:17.451Z,19.17
2018-10-17T11:21:47.059Z,21.73
2018-10-17T11:24:16.634Z,24.07
2018-10-17T11:26:45.467Z,14.80
2018-10-17T11:29:15.076Z,20.90
2018-10-17T11:31:43.958Z,19.67
2018-10-17T11:34:12.757Z,20.75
2018-10-17T11:36:41.647Z,19.10
2018-10-17T11:39:10.458Z,21.07
2018-10-17T11:41:39.314Z,18.03
2018-10-17T11:44:08.132Z,19.20
2018-10-17T11:46:37.001Z,21.60
2018-10-17T11:49:05.858Z,20.87
2018-10-17T11:51:34.652Z,19.70
2018-10-17T11:54:03.493Z,20.50
2018-10-17T11:56:32.323Z,21.42
2018-10-17T11:59:01.192Z,19.33
2018-10-17T12:01:30.003Z,19.80
2018-10-17T12:03:59.681Z,18.93
2018-10-17T12:06:28.446Z,18.33
2018-10-17T12:08:57.910Z,18.10
2018-10-17T12:11:26.766Z,20.52
2018-10-17T12:13:55.576Z,19.10
2018-10-17T12:16:24.451Z,16.08
2018-10-17T12:18:53.336Z,15.77
2018-10-17T12:21:22.226Z,17.02
2018-10-17T12:23:51.020Z,14.67
2018-10-17T12:26:19.821Z,16.83
2018-10-17T12:28:48.755Z,15.07
2018-10-17T12:31:17.512Z,14.73
2018-10-17T12:33:46.348Z,17.87
2018-10-17T12:36:15.194Z,23.12
2018-10-17T12:38:44.784Z,19.27
2018-10-17T12:41:13.665Z,21.95
2018-10-17T12:43:42.475Z,19.92
2018-10-17T12:46:11.313Z,18.87
2018-10-17T12:48:40.896Z,21.42
2018-10-17T12:51:10.192Z,17.67
2018-10-17T12:53:39.126Z,17.62
2018-10-17T12:56:07.912Z,16.10
2018-10-17T12:58:36.744Z,14.65
2018-10-17T13:01:06.387Z,16.45
2018-10-17T13:03:35.181Z,17.40
2018-10-17T13:06:04.043Z,17.27
2018-10-17T13:08:32.895Z,18.25
2018-10-17T13:11:01.737Z,17.08
2018-10-17T13:13:31.366Z,17.05
2018-10-17T13:16:00.313Z,17.65
2018-10-17T13:18:29.154Z,22.60
2018-10-17T13:20:58.006Z,20.35
2018-10-17T13:23:26.863Z,18.50
2018-10-17T13:25:55.701Z,16.02
2018-10-17T13:28:24.549Z,20.37
2018-10-17T13:30:54.180Z,15.18
2018-10-17T13:33:22.988Z,15.98
2018-10-17T13:35:51.838Z,21.52
2018-10-17T13:38:20.673Z,21.83
2018-10-17T13:40:50.257Z,24.02
2018-10-17T13:43:19.240Z,23.48
2018-10-17T13:45:47.930Z,22.02
2018-10-17T13:48:16.778Z,21.25
2018-10-17T13:50:45.628Z,24.42
2018-10-17T13:53:14.510Z,27.85
2018-10-17T13:55:43.321Z,23.73
2018-10-17T13:58:12.227Z,28.55
2018-10-17T14:00:41.029Z,29.52
2018-10-17T14:03:09.912Z,27.83
2018-10-17T14:05:38.745Z,28.38
2018-10-17T14:08:07.581Z,31.05
2018-10-17T14:10:36.425Z,27.92
2018-10-17T14:13:05.274Z,26.42
2018-10-17T14:15:34.124Z,22.90
2018-10-17T14:18:03.029Z,26.30
2018-10-17T14:20:31.880Z,27.40
2018-10-17T14:23:00.691Z,33.13
2018-10-17T14:25:29.545Z,29.48
2018-10-17T14:27:59.121Z,25.12
2018-10-17T14:30:28.077Z,25.50
2018-10-17T14:32:57.715Z,24.48
2018-10-17T14:35:26.502Z,24.80
2018-10-17T14:37:55.399Z,19.77
2018-10-17T14:40:24.199Z,19.23
2018-10-17T14:42:53.058Z,27.05
2018-10-17T14:45:21.910Z,17.92
2018-10-17T14:47:50.754Z,18.30
2018-10-17T14:50:20.216Z,22.33
2018-10-17T14:52:49.054Z,22.50
2018-10-17T14:55:17.901Z,22.45
2018-10-17T14:57:46.756Z,22.85
2018-10-17T15:00:15.590Z,22.55
2018-10-17T15:02:44.442Z,20.88
2018-10-17T15:05:13.386Z,17.70
2018-10-17T15:07:42.184Z,22.87
2018-10-17T15:10:11.029Z,18.50
2018-10-17T15:12:39.841Z,19.30
2018-10-17T15:15:08.748Z,18.45
2018-10-17T15:17:37.616Z,16.10
2018-10-17T15:20:06.446Z,16.90
2018-10-17T15:22:35.305Z,15.15
2018-10-17T15:25:04.163Z,15.48
2018-10-17T15:27:33.608Z,16.05
2018-10-17T15:30:02.537Z,13.38
2018-10-17T15:32:31.347Z,14.73
2018-10-17T15:35:00.265Z,14.60
2018-10-17T15:37:29.356Z,14.35
2018-10-17T15:39:58.142Z,13.50
2018-10-17T15:42:26.989Z,11.45
2018-10-17T15:44:55.872Z,13.55
2018-10-17T15:47:24.682Z,15.30
2018-10-17T15:49:53.781Z,11.90
2018-10-17T15:52:22.623Z,13.30
2018-10-17T15:54:51.572Z,11.70
2018-10-17T15:57:20.322Z,10.57
2018-10-17T15:59:49.168Z,10.52
2018-10-17T16:02:18.056Z,12.75
2018-10-17T16:04:46.873Z,14.10
2018-10-17T16:07:15.730Z,11.80
2018-10-17T16:09:44.565Z,12.20
2018-10-17T16:12:13.429Z,9.15
2018-10-17T16:14:42.229Z,12.98
2018-10-17T16:17:11.148Z,12.85
2018-10-17T16:19:39.904Z,11.10
2018-10-17T16:22:08.751Z,12.13
2018-10-17T16:24:37.590Z,8.80
2018-10-17T16:27:06.437Z,12.73
2018-10-17T16:29:35.269Z,9.52
2018-10-17T16:32:04.162Z,9.23
2018-10-17T16:34:32.967Z,8.95
2018-10-17T16:37:01.823Z,12.60
2018-10-17T16:39:30.663Z,11.32
2018-10-17T16:41:59.517Z,11.90
2018-10-17T16:44:28.327Z,7.70
2018-10-17T16:46:57.161Z,12.10
2018-10-17T16:49:26.034Z,15.90
2018-10-17T16:51:54.860Z,11.05
2018-10-17T16:54:23.703Z,10.02
2018-10-17T16:56:52.561Z,10.20
2018-10-17T16:59:21.400Z,11.73
2018-10-17T17:01:50.233Z,12.68
2018-10-17T17:04:19.119Z,11.73
2018-10-17T17:06:47.932Z,13.60
2018-10-17T17:09:16.858Z,11.63
2018-10-17T17:11:45.602Z,12.05
2018-10-17T17:14:14.445Z,13.07
2018-10-17T17:16:43.287Z,9.45
2018-10-17T17:19:12.122Z,11.77
2018-10-17T17:21:41.137Z,13.07
2018-10-17T17:24:10.029Z,10.40
2018-10-17T17:26:38.822Z,13.80
2018-10-17T17:29:08.418Z,10.57
2018-10-17T17:31:37.266Z,12.20
2018-10-17T17:34:06.100Z,10.70
2018-10-17T17:36:34.960Z,11.23
2018-10-17T17:39:03.804Z,13.13
2018-10-17T17:41:32.692Z,18.73
2018-10-17T17:44:02.278Z,13.82
2018-10-17T17:46:31.130Z,14.23
2018-10-17T17:48:59.991Z,13.70
2018-10-17T17:51:28.845Z,12.33
2018-10-17T17:53:57.703Z,15.47
2018-10-17T17:56:26.555Z,11.60
2018-10-17T17:58:55.401Z,11.40
2018-10-17T18:01:24.256Z,12.90
2018-10-17T18:03:53.104Z,14.52
2018-10-17T18:06:21.990Z,13.35
2018-10-17T18:08:50.778Z,15.18
2018-10-17T18:11:20.370Z,15.13
2018-10-17T18:13:49.829Z,16.47
2018-10-17T18:16:18.677Z,17.90
2018-10-17T18:18:47.546Z,15.27
2018-10-17T18:21:16.393Z,16.37
2018-10-17T18:23:45.243Z,13.10
2018-10-17T18:26:14.838Z,16.65
2018-10-17T18:28:43.693Z,17.30
2018-10-17T18:31:12.551Z,17.27
2018-10-17T18:33:42.115Z,16.80
2018-10-17T18:36:10.956Z,15.77
2018-10-17T18:38:39.796Z,14.53
2018-10-17T18:41:08.645Z,17.80
2018-10-17T18:43:37.504Z,19.63
2018-10-17T18:46:07.103Z,20.97
2018-10-17T18:48:35.936Z,15.90
2018-10-17T18:51:05.004Z,17.10
2018-10-17T18:53:33.827Z,16.80
2018-10-17T18:56:02.723Z,20.27
2018-10-17T18:58:31.553Z,16.97
2018-10-17T19:01:00.368Z,17.30
2018-10-17T19:03:29.226Z,13.53
2018-10-17T19:05:58.844Z,22.33
2018-10-17T19:08:27.676Z,18.92
2018-10-17T19:10:56.530Z,15.30
2018-10-17T19:13:25.372Z,16.50
2018-10-17T19:15:54.283Z,14.20
2018-10-17T19:18:23.065Z,16.87
2018-10-17T19:20:51.938Z,14.57
2018-10-17T19:23:20.780Z,16.37
2018-10-17T19:25:49.646Z,13.50
2018-10-17T19:28:19.083Z,17.53
2018-10-17T19:30:47.934Z,15.60
2018-10-17T19:33:16.823Z,12.87
2018-10-17T19:35:45.674Z,15.48
2018-10-17T19:38:14.480Z,13.50
2018-10-17T19:40:43.349Z,16.97
2018-10-17T19:43:12.204Z,13.10
2018-10-17T19:45:41.055Z,13.67
2018-10-17T19:48:09.897Z,17.27
2018-10-17T19:50:38.743Z,17.47
2018-10-17T19:53:08.338Z,15.57
2018-10-17T19:55:37.171Z,14.27
2018-10-17T19:58:06.022Z,17.17
2018-10-17T20:00:34.865Z,15.60
2018-10-17T20:03:03.724Z,15.10
2018-10-17T20:05:32.563Z,21.43
2018-10-17T20:08:01.458Z,18.37
2018-10-17T20:10:30.293Z,18.93
2018-10-17T20:13:00.047Z,16.00
2018-10-17T20:15:29.054Z,14.97
2018-10-17T20:17:58.227Z,15.77
2018-10-17T20:20:26.801Z,15.87
2018-10-17T20:22:55.685Z,15.13
2018-10-17T20:25:24.542Z,15.37
2018-10-17T20:27:54.143Z,15.27
2018-10-17T20:30:23.015Z,15.90
2018-10-17T20:32:51.876Z,18.83
2018-10-17T20:35:20.720Z,17.80
2018-10-17T20:37:50.453Z,14.87
2018-10-17T20:40:19.307Z,15.40
2018-10-17T20:42:48.162Z,16.97
2018-10-17T20:45:17.009Z,17.90
2018-10-17T20:47:46.605Z,18.47
2018-10-17T20:50:15.492Z,14.73
2018-10-17T20:52:44.289Z,15.23
2018-10-17T20:55:13.894Z,19.30
2018-10-17T20:57:42.749Z,16.37
2018-10-17T21:00:11.607Z,16.85
2018-10-17T21:02:40.451Z,19.03
2018-10-17T21:05:10.071Z,15.23
2018-10-17T21:07:38.911Z,14.80
2018-10-17T21:10:07.749Z,16.33
2018-10-17T21:12:37.334Z,15.30
2018-10-17T21:15:06.769Z,14.97
2018-10-17T21:17:35.607Z,16.20
2018-10-17T21:20:04.456Z,16.13
2018-10-17T21:22:33.297Z,17.63
2018-10-17T21:25:02.139Z,18.53
2018-10-17T21:27:30.982Z,17.27
2018-10-17T21:29:59.819Z,16.50
2018-10-17T21:32:28.666Z,16.73
2018-10-17T21:34:58.246Z,16.33
2018-10-17T21:37:27.102Z,16.92
2018-10-17T21:39:55.947Z,15.87
2018-10-17T21:42:24.784Z,15.70
2018-10-17T21:44:53.623Z,16.00
2018-10-17T21:47:22.591Z,15.13
2018-10-17T21:49:51.346Z,16.73
2018-10-17T21:52:20.170Z,19.00
2018-10-17T21:54:49.010Z,16.43
2018-10-17T21:57:17.861Z,16.67
2018-10-17T21:59:46.712Z,15.80
2018-10-17T22:02:15.572Z,16.00
2018-10-17T22:04:45.163Z,16.73
2018-10-17T22:07:14.747Z,16.87
2018-10-17T22:09:43.650Z,17.85
2018-10-17T22:12:12.452Z,18.83
2018-10-17T22:14:41.300Z,21.07
2018-10-17T22:17:10.129Z,20.67
2018-10-17T22:19:39.016Z,18.37
2018-10-17T22:22:07.817Z,17.60
2018-10-17T22:24:37.394Z,19.30
2018-10-17T22:27:06.238Z,19.03
2018-10-17T22:29:35.079Z,18.17
2018-10-17T22:32:03.980Z,17.47
2018-10-17T22:34:32.800Z,19.52
2018-10-17T22:37:01.642Z,17.00
2018-10-17T22:39:30.479Z,17.33
2018-10-17T22:41:59.322Z,17.60
2018-10-17T22:44:28.195Z,19.70
2018-10-17T22:46:57.025Z,17.23
2018-10-17T22:49:25.880Z,18.43
2018-10-17T22:51:54.733Z,19.80
2018-10-17T22:54:23.566Z,17.40
2018-10-17T22:56:52.403Z,18.77
2018-10-17T22:59:21.256Z,17.07
2018-10-17T23:01:50.109Z,17.97
2018-10-17T23:04:18.946Z,20.30
2018-10-17T23:06:48.530Z,17.27
2018-10-17T23:09:17.362Z,19.42
2018-10-17T23:11:46.207Z,19.17
2018-10-17T23:14:15.132Z,17.17
2018-10-17T23:16:43.908Z,17.30
2018-10-17T23:19:12.752Z,17.40
2018-10-17T23:21:41.594Z,19.20
2018-10-17T23:24:11.183Z,23.07
2018-10-17T23:26:40.021Z,18.62
2018-10-17T23:29:08.853Z,18.27
2018-10-17T23:31:37.690Z,17.83
2018-10-17T23:34:06.538Z,17.27
2018-10-17T23:36:35.387Z,17.60
2018-10-17T23:39:04.230Z,18.58
2018-10-17T23:41:33.807Z,18.00
2018-10-17T23:44:02.690Z,16.43
2018-10-17T23:46:31.477Z,17.93
2018-10-17T23:49:00.310Z,17.53
2018-10-17T23:51:29.904Z,18.17
2018-10-17T23:53:59.531Z,17.40
2018-10-17T23:56:28.309Z,17.37
2018-10-17T23:58:57.152Z,17.13
